createdAt,value
2022-11-14T00:00:49.486Z,8.59
2022-11-14T00:03:17.170Z,8.62
2022-11-14T00:05:45.604Z,8.58
2022-11-14T00:08:20.120Z,8.58
2022-11-14T00:10:48.313Z,8.51
2022-11-14T00:13:15.945Z,8.50
2022-11-14T00:15:42.996Z,8.49
2022-11-14T00:18:11.450Z,8.49
2022-11-14T00:20:38.037Z,8.49
2022-11-14T00:23:04.938Z,8.44
2022-11-14T00:25:32.264Z,8.46
2022-11-14T00:27:59.593Z,8.43
2022-11-14T00:30:27.768Z,8.39
2022-11-14T00:32:58.593Z,8.45
2022-11-14T00:35:25.242Z,8.39
2022-11-14T00:37:52.415Z,8.37
2022-11-14T00:40:19.036Z,8.35
2022-11-14T00:42:45.492Z,8.42
2022-11-14T00:45:12.802Z,8.41
2022-11-14T00:47:39.491Z,8.40
2022-11-14T00:50:06.662Z,8.35
2022-11-14T00:52:33.238Z,8.33
2022-11-14T00:54:59.809Z,8.36
2022-11-14T00:57:26.271Z,8.34
2022-11-14T00:59:55.670Z,8.38
2022-11-14T01:02:22.831Z,8.45
2022-11-14T01:04:49.461Z,8.42
2022-11-14T01:07:16.034Z,8.42
2022-11-14T01:09:43.358Z,8.50
2022-11-14T01:12:11.356Z,8.48
2022-11-14T01:14:41.107Z,8.53
2022-11-14T01:17:09.716Z,8.55
2022-11-14T01:19:38.105Z,8.57
2022-11-14T01:22:06.806Z,8.54
2022-11-14T01:24:35.670Z,8.52
2022-11-14T01:27:04.056Z,8.61
2022-11-14T01:29:31.939Z,8.67
2022-11-14T01:31:59.637Z,8.69
2022-11-14T01:34:27.743Z,8.66
2022-11-14T01:36:56.067Z,8.75
2022-11-14T01:39:24.113Z,8.68
2022-11-14T01:41:52.282Z,8.75
2022-11-14T01:44:49.777Z,8.75
2022-11-14T01:47:20.786Z,8.73
2022-11-14T01:49:52.532Z,8.68
2022-11-14T01:52:28.872Z,8.72
2022-11-14T01:54:59.894Z,8.76
2022-11-14T01:57:37.573Z,8.76
2022-11-14T02:00:11.607Z,8.74
2022-11-14T02:02:38.575Z,8.66
2022-11-14T02:05:16.873Z,8.72
2022-11-14T02:07:44.612Z,8.69
2022-11-14T02:10:18.345Z,8.59
2022-11-14T02:12:45.933Z,8.56
2022-11-14T02:15:14.839Z,8.51
2022-11-14T02:17:42.981Z,8.58
2022-11-14T02:20:10.889Z,8.54
2022-11-14T02:22:39.755Z,8.66
2022-11-14T02:25:08.615Z,8.66
2022-11-14T02:27:38.581Z,8.71
2022-11-14T02:30:09.307Z,8.68
2022-11-14T02:35:24.345Z,8.76
2022-11-14T02:37:51.633Z,8.65
2022-11-14T02:40:19.244Z,8.72
2022-11-14T02:42:46.905Z,8.69
2022-11-14T02:45:14.646Z,8.62
2022-11-14T02:47:41.876Z,8.64
2022-11-14T02:50:09.783Z,8.54
2022-11-14T02:52:36.705Z,8.62
2022-11-14T02:55:05.276Z,8.57
2022-11-14T02:57:32.574Z,8.53
2022-11-14T03:00:00.065Z,8.68
2022-11-14T03:02:27.780Z,8.66
2022-11-14T03:04:56.135Z,8.72
2022-11-14T03:07:23.816Z,8.84
2022-11-14T03:09:51.795Z,8.86
2022-11-14T03:12:20.418Z,8.83
2022-11-14T03:14:48.130Z,8.81
2022-11-14T03:17:15.676Z,8.80
2022-11-14T03:19:43.524Z,8.76
2022-11-14T03:22:11.430Z,8.84
2022-11-14T03:24:38.945Z,8.81
2022-11-14T03:27:06.292Z,8.83
2022-11-14T03:29:33.641Z,8.83
2022-11-14T03:32:00.990Z,8.81
2022-11-14T03:34:28.695Z,8.79
2022-11-14T03:36:55.952Z,8.86
2022-11-14T03:39:24.327Z,8.81
2022-11-14T03:41:51.666Z,8.84
2022-11-14T03:44:19.719Z,8.87
2022-11-14T03:46:47.225Z,8.88
2022-11-14T03:49:13.892Z,8.78
2022-11-14T03:51:40.694Z,8.68
2022-11-14T03:54:07.722Z,8.77
2022-11-14T03:56:34.422Z,8.81
2022-11-14T03:59:01.622Z,8.87
2022-11-14T04:01:29.340Z,8.96
2022-11-14T04:03:56.266Z,8.94
2022-11-14T04:06:23.567Z,8.98
2022-11-14T04:08:51.915Z,8.99
2022-11-14T04:11:19.587Z,8.98
2022-11-14T04:13:46.849Z,9.03
2022-11-14T04:16:14.284Z,8.93
2022-11-14T04:18:41.763Z,8.91
2022-11-14T04:21:08.550Z,8.97
2022-11-14T04:23:35.390Z,8.93
2022-11-14T04:26:02.595Z,9.10
2022-11-14T04:28:31.921Z,9.08
2022-11-14T04:31:00.884Z,8.98
2022-11-14T04:33:29.182Z,9.02
2022-11-14T04:35:57.779Z,9.03
2022-11-14T04:38:25.819Z,9.03
2022-11-14T04:40:54.254Z,9.04
2022-11-14T04:43:21.257Z,8.92
2022-11-14T04:45:47.855Z,8.98
2022-11-14T04:48:14.503Z,9.07
2022-11-14T04:50:41.130Z,9.07
2022-11-14T04:53:07.837Z,9.03
2022-11-14T04:55:34.450Z,8.97
2022-11-14T04:58:00.948Z,9.04
2022-11-14T05:00:27.480Z,9.01
2022-11-14T05:02:54.003Z,9.03
2022-11-14T05:05:20.786Z,9.05
2022-11-14T05:07:47.375Z,8.94
2022-11-14T05:10:14.067Z,8.93
2022-11-14T05:12:40.576Z,8.84
2022-11-14T05:15:08.131Z,8.78
2022-11-14T05:17:34.635Z,8.80
2022-11-14T05:20:01.144Z,8.85
2022-11-14T05:22:27.716Z,8.76
2022-11-14T05:24:54.454Z,8.94
2022-11-14T05:27:21.017Z,8.88
2022-11-14T05:29:47.462Z,8.84
2022-11-14T05:32:16.418Z,8.89
2022-11-14T05:34:43.264Z,8.97
2022-11-14T05:37:09.716Z,8.97
2022-11-14T05:39:36.228Z,8.92
2022-11-14T05:42:02.629Z,8.96
2022-11-14T05:44:29.121Z,8.92
2022-11-14T05:46:55.630Z,8.96
2022-11-14T05:49:23.182Z,8.93
2022-11-14T05:51:49.629Z,8.86
2022-11-14T05:54:16.301Z,8.84
2022-11-14T05:56:42.734Z,8.84
2022-11-14T05:59:09.139Z,8.63
2022-11-14T06:01:35.682Z,8.69
2022-11-14T06:04:05.828Z,8.56
2022-11-14T06:06:32.269Z,8.65
2022-11-14T06:08:58.692Z,8.77
2022-11-14T06:11:25.141Z,8.89
2022-11-14T06:13:51.579Z,8.86
2022-11-14T06:16:19.346Z,8.87
2022-11-14T06:18:45.972Z,8.81
2022-11-14T06:21:18.088Z,8.84
2022-11-14T06:23:45.394Z,8.79
2022-11-14T06:26:21.542Z,8.86
2022-11-14T06:28:49.532Z,8.80
2022-11-14T06:31:16.241Z,8.80
2022-11-14T06:33:42.760Z,8.78
2022-11-14T06:36:09.940Z,8.78
2022-11-14T06:38:39.222Z,8.81
2022-11-14T06:41:16.516Z,8.84
2022-11-14T06:43:47.761Z,8.93
2022-11-14T06:46:16.841Z,9.00
2022-11-14T06:48:45.134Z,8.97
2022-11-14T06:51:12.743Z,9.04
2022-11-14T06:53:39.888Z,9.09
2022-11-14T06:56:14.853Z,9.13
2022-11-14T06:58:44.024Z,9.07
2022-11-14T07:01:25.989Z,9.18
2022-11-14T07:03:52.570Z,9.17
2022-11-14T07:06:21.909Z,9.14
2022-11-14T07:08:48.754Z,9.26
2022-11-14T07:11:23.257Z,9.33
2022-11-14T07:13:51.292Z,9.35
2022-11-14T07:16:18.647Z,9.35
2022-11-14T07:18:45.550Z,9.37
2022-11-14T07:21:14.539Z,9.43
2022-11-14T07:23:42.674Z,9.48
2022-11-14T07:26:11.487Z,9.68
2022-11-14T07:28:40.744Z,10.13
2022-11-14T07:31:08.749Z,10.60
2022-11-14T07:33:35.503Z,10.97
2022-11-14T07:36:02.378Z,11.36
2022-11-14T07:38:31.115Z,11.87
2022-11-14T07:41:00.448Z,12.15
2022-11-14T07:43:27.821Z,11.96
2022-11-14T07:45:54.825Z,12.52
2022-11-14T07:48:22.428Z,12.58
2022-11-14T07:50:48.906Z,12.61
2022-11-14T07:53:16.679Z,12.87
2022-11-14T07:55:43.667Z,12.85
2022-11-14T07:58:10.144Z,12.97
2022-11-14T08:00:36.666Z,13.10
2022-11-14T08:03:03.290Z,13.78
2022-11-14T08:05:29.733Z,13.75
2022-11-14T08:07:56.236Z,13.95
2022-11-14T08:10:22.719Z,14.20
2022-11-14T08:13:17.548Z,13.35
2022-11-14T08:15:44.414Z,13.57
2022-11-14T08:18:10.942Z,13.41
2022-11-14T08:20:37.371Z,13.72
2022-11-14T08:23:05.158Z,13.81
2022-11-14T08:25:31.813Z,13.71
2022-11-14T08:27:58.339Z,14.07
2022-11-14T08:30:25.241Z,14.32
2022-11-14T08:32:51.757Z,14.17
2022-11-14T08:35:18.262Z,13.97
2022-11-14T08:37:44.730Z,14.16
2022-11-14T08:40:11.975Z,14.13
2022-11-14T08:42:38.459Z,13.45
2022-11-14T08:45:05.564Z,13.69
2022-11-14T08:47:32.053Z,14.05
2022-11-14T08:49:58.495Z,14.72
2022-11-14T08:52:24.973Z,14.68
2022-11-14T08:54:51.481Z,14.70
2022-11-14T08:57:17.885Z,14.06
2022-11-14T08:59:44.320Z,14.37
2022-11-14T09:02:13.853Z,14.52
2022-11-14T09:04:40.378Z,14.81
2022-11-14T09:07:07.053Z,14.16
2022-11-14T09:09:33.569Z,14.04
2022-11-14T09:12:00.133Z,14.38
2022-11-14T09:14:26.833Z,14.37
2022-11-14T09:16:53.371Z,14.36
2022-11-14T09:19:19.895Z,14.59
2022-11-14T09:21:46.346Z,14.61
2022-11-14T09:24:12.830Z,13.96
2022-11-14T09:26:39.284Z,14.49
2022-11-14T09:29:06.557Z,14.36
2022-11-14T09:31:33.190Z,13.88
2022-11-14T09:33:59.842Z,13.56
2022-11-14T09:36:26.422Z,13.45
2022-11-14T09:38:52.878Z,13.35
2022-11-14T09:41:31.700Z,13.80
2022-11-14T09:43:58.158Z,13.52
2022-11-14T09:46:47.429Z,13.72
2022-11-14T09:49:36.865Z,13.25
2022-11-14T09:52:17.565Z,13.68
2022-11-14T09:54:53.060Z,13.85
2022-11-14T09:57:20.433Z,13.86
2022-11-14T09:59:46.854Z,13.51
2022-11-14T10:02:35.211Z,14.06
2022-11-14T10:05:19.764Z,13.67
2022-11-14T10:08:15.408Z,13.62
2022-11-14T10:11:17.308Z,13.32
2022-11-14T10:14:17.724Z,13.19
2022-11-14T10:16:53.447Z,12.97
2022-11-14T10:19:38.654Z,13.62
2022-11-14T10:22:42.807Z,13.17
2022-11-14T10:25:22.936Z,13.76
2022-11-14T10:28:27.217Z,13.88
2022-11-14T10:31:09.528Z,14.13
2022-11-14T10:33:57.592Z,13.60
2022-11-14T10:36:29.976Z,13.69
2022-11-14T10:39:05.510Z,13.88
2022-11-14T10:41:56.272Z,13.99
2022-11-14T10:44:22.372Z,13.97
2022-11-14T10:46:52.475Z,14.04
2022-11-14T10:49:24.599Z,14.18
2022-11-14T10:51:54.474Z,14.06
2022-11-14T10:54:28.888Z,13.66
2022-11-14T10:56:55.519Z,13.81
2022-11-14T10:59:22.475Z,14.38
2022-11-14T11:01:53.847Z,14.06
2022-11-14T11:04:36.590Z,14.30
2022-11-14T11:07:09.273Z,13.53
2022-11-14T11:09:58.647Z,13.26
2022-11-14T11:12:41.058Z,13.47
2022-11-14T11:15:22.869Z,13.53
2022-11-14T11:17:57.382Z,13.66
2022-11-14T11:20:26.396Z,13.83
2022-11-14T11:23:11.833Z,14.19
2022-11-14T11:25:40.208Z,14.55
2022-11-14T11:28:18.478Z,14.67
2022-11-14T11:31:00.429Z,14.83
2022-11-14T11:33:30.315Z,14.53
2022-11-14T11:36:00.388Z,14.28
2022-11-14T11:38:29.335Z,14.27
2022-11-14T11:41:25.876Z,13.95
2022-11-14T11:44:07.607Z,13.75
2022-11-14T11:46:52.573Z,14.20
2022-11-14T11:49:50.058Z,14.74
2022-11-14T11:52:37.889Z,15.02
2022-11-14T11:55:35.703Z,14.39
2022-11-14T11:58:06.459Z,14.35
2022-11-14T12:00:33.406Z,13.89
2022-11-14T12:03:00.371Z,13.43
2022-11-14T12:05:46.410Z,13.69
2022-11-14T12:08:21.726Z,14.27
2022-11-14T12:10:49.051Z,14.29
2022-11-14T12:13:54.149Z,13.86
2022-11-14T12:16:55.304Z,13.87
2022-11-14T12:19:33.586Z,13.82
2022-11-14T12:22:00.086Z,13.95
2022-11-14T12:24:53.644Z,14.16
2022-11-14T12:27:51.351Z,14.08
2022-11-14T12:30:23.492Z,14.30
2022-11-14T12:33:08.568Z,14.33
2022-11-14T12:35:36.414Z,14.27
2022-11-14T12:38:05.146Z,13.85
2022-11-14T12:40:58.368Z,13.86
2022-11-14T12:43:37.291Z,13.70
2022-11-14T12:46:06.462Z,13.38
2022-11-14T12:48:34.886Z,14.21
2022-11-14T12:51:02.404Z,14.12
2022-11-14T12:53:38.071Z,14.41
2022-11-14T12:56:25.866Z,14.53
2022-11-14T12:59:05.756Z,14.44
2022-11-14T13:01:50.846Z,14.53
2022-11-14T13:04:24.850Z,13.97
2022-11-14T13:06:58.508Z,13.59
2022-11-14T13:09:33.847Z,13.80
2022-11-14T13:12:38.862Z,13.88
2022-11-14T13:15:48.825Z,13.84
2022-11-14T13:18:45.400Z,13.80
2022-11-14T13:21:46.024Z,14.07
2022-11-14T13:24:18.595Z,13.58
2022-11-14T13:26:46.109Z,13.54
2022-11-14T13:29:49.668Z,13.51
2022-11-14T13:32:41.823Z,13.42
2022-11-14T13:35:23.492Z,13.52
2022-11-14T13:37:59.891Z,13.50
2022-11-14T13:40:51.451Z,13.29
2022-11-14T13:43:36.629Z,13.26
2022-11-14T13:46:30.720Z,13.11
2022-11-14T13:49:29.590Z,13.21
2022-11-14T13:51:56.383Z,13.10
2022-11-14T13:54:22.954Z,13.15
2022-11-14T13:57:01.309Z,12.90
2022-11-14T13:59:55.302Z,13.06
2022-11-14T14:02:43.690Z,12.95
2022-11-14T14:05:36.347Z,13.03
2022-11-14T14:08:33.545Z,13.03
2022-11-14T14:11:09.394Z,12.95
2022-11-14T14:14:13.778Z,12.89
2022-11-14T14:16:56.098Z,12.52
2022-11-14T14:19:38.578Z,12.35
2022-11-14T14:22:10.154Z,12.20
2022-11-14T14:24:50.946Z,12.34
2022-11-14T14:27:28.944Z,12.41
2022-11-14T14:30:17.275Z,12.23
2022-11-14T14:32:43.851Z,12.22
2022-11-14T14:35:28.475Z,12.24
2022-11-14T14:37:56.375Z,11.99
2022-11-14T14:40:33.790Z,11.91
2022-11-14T14:43:01.660Z,11.79
2022-11-14T14:45:29.803Z,11.76
2022-11-14T14:48:05.962Z,11.68
2022-11-14T14:50:47.570Z,11.66
2022-11-14T14:53:22.385Z,11.63
2022-11-14T14:55:57.424Z,11.60
2022-11-14T14:58:24.995Z,11.53
2022-11-14T15:00:59.314Z,11.54
2022-11-14T15:03:46.975Z,11.46
2022-11-14T15:06:30.608Z,11.37
2022-11-14T15:09:03.295Z,11.25
2022-11-14T15:11:32.681Z,11.34
2022-11-14T15:14:01.183Z,11.25
2022-11-14T15:16:28.707Z,11.18
2022-11-14T15:18:56.614Z,11.19
2022-11-14T15:21:27.484Z,11.03
2022-11-14T15:24:13.573Z,11.08
2022-11-14T15:26:40.404Z,10.96
2022-11-14T15:29:27.922Z,11.00
2022-11-14T15:32:02.523Z,10.94
2022-11-14T15:34:30.565Z,10.92
2022-11-14T15:37:13.776Z,10.96
2022-11-14T15:39:40.815Z,10.86
2022-11-14T15:42:28.840Z,10.80
2022-11-14T15:44:55.928Z,10.84
2022-11-14T15:47:24.771Z,10.77
2022-11-14T15:49:59.379Z,10.78
2022-11-14T15:52:30.730Z,10.74
2022-11-14T15:54:57.218Z,10.68
2022-11-14T15:57:23.749Z,10.62
2022-11-14T15:59:50.249Z,10.58
2022-11-14T16:02:21.036Z,10.51
2022-11-14T16:04:48.182Z,10.48
2022-11-14T16:07:16.590Z,10.47
2022-11-14T16:09:43.535Z,10.45
2022-11-14T16:12:10.373Z,10.42
2022-11-14T16:14:37.159Z,10.36
2022-11-14T16:17:03.989Z,10.33
2022-11-14T16:19:30.708Z,10.38
2022-11-14T16:22:02.856Z,10.30
2022-11-14T16:24:34.009Z,10.34
2022-11-14T16:27:00.878Z,10.30
2022-11-14T16:29:27.502Z,10.23
2022-11-14T16:31:55.278Z,10.19
2022-11-14T16:34:24.243Z,10.26
2022-11-14T16:36:58.108Z,10.15
2022-11-14T16:39:24.650Z,10.13
2022-11-14T16:41:51.147Z,10.14
2022-11-14T16:44:18.762Z,10.09
2022-11-14T16:46:45.945Z,10.09
2022-11-14T16:49:16.431Z,10.03
2022-11-14T16:51:48.940Z,10.06
2022-11-14T16:54:21.289Z,9.91
2022-11-14T16:56:48.487Z,9.96
2022-11-14T16:59:15.290Z,9.95
2022-11-14T17:01:43.126Z,9.93
2022-11-14T17:04:10.222Z,9.95
2022-11-14T17:06:36.810Z,9.90
2022-11-14T17:09:04.237Z,9.81
2022-11-14T17:11:31.041Z,9.82
2022-11-14T17:13:58.187Z,9.82
2022-11-14T17:16:25.632Z,9.83
2022-11-14T17:18:55.825Z,9.80
2022-11-14T17:21:23.028Z,9.89
2022-11-14T17:24:01.683Z,9.84
2022-11-14T17:26:29.040Z,9.85
2022-11-14T17:28:56.134Z,9.87
2022-11-14T17:31:22.832Z,9.89
2022-11-14T17:33:54.114Z,9.81
2022-11-14T17:36:21.474Z,9.78
2022-11-14T17:38:47.986Z,9.89
2022-11-14T17:41:14.461Z,9.87
2022-11-14T17:43:41.071Z,9.89
2022-11-14T17:46:12.545Z,9.83
2022-11-14T17:48:42.725Z,9.85
2022-11-14T17:51:12.763Z,9.86
2022-11-14T17:53:39.776Z,9.81
2022-11-14T17:56:07.781Z,9.78
2022-11-14T17:58:35.033Z,9.79
2022-11-14T18:01:02.479Z,9.66
2022-11-14T18:03:29.043Z,9.77
2022-11-14T18:06:08.050Z,9.74
2022-11-14T18:08:35.025Z,9.76
2022-11-14T18:11:02.844Z,9.65
2022-11-14T18:13:29.388Z,9.77
2022-11-14T18:16:00.672Z,9.67
2022-11-14T18:18:27.133Z,9.63
2022-11-14T18:20:53.706Z,9.72
2022-11-14T18:23:20.139Z,9.74
2022-11-14T18:25:46.835Z,9.66
2022-11-14T18:28:13.268Z,9.56
2022-11-14T18:30:41.769Z,9.51
2022-11-14T18:33:08.530Z,9.60
2022-11-14T18:35:35.109Z,9.64
2022-11-14T18:38:01.594Z,9.66
2022-11-14T18:40:28.042Z,9.62
2022-11-14T18:42:54.474Z,9.65
2022-11-14T18:45:20.959Z,9.65
2022-11-14T18:47:47.392Z,9.65
2022-11-14T18:50:14.230Z,9.62
2022-11-14T18:52:40.732Z,9.61
2022-11-14T18:55:07.996Z,9.66
2022-11-14T18:57:34.632Z,9.58
2022-11-14T19:00:01.155Z,9.55
2022-11-14T19:02:27.696Z,9.46
2022-11-14T19:04:54.257Z,9.43
2022-11-14T19:07:20.775Z,9.34
2022-11-14T19:09:47.389Z,9.36
2022-11-14T19:12:21.842Z,9.35
2022-11-14T19:14:50.489Z,9.31
2022-11-14T19:17:22.392Z,9.24
2022-11-14T19:19:50.056Z,9.19
2022-11-14T19:22:17.147Z,9.12
2022-11-14T19:24:45.057Z,9.12
2022-11-14T19:27:12.453Z,9.09
2022-11-14T19:29:39.068Z,9.14
2022-11-14T19:32:06.107Z,8.98
2022-11-14T19:34:32.821Z,8.87
2022-11-14T19:37:00.792Z,8.87
2022-11-14T19:39:27.894Z,8.98
2022-11-14T19:41:54.336Z,8.93
2022-11-14T19:44:21.035Z,8.88
2022-11-14T19:46:48.274Z,8.87
2022-11-14T19:49:15.236Z,8.78
2022-11-14T19:51:42.052Z,8.81
2022-11-14T19:54:09.698Z,8.94
2022-11-14T19:56:36.325Z,9.07
2022-11-14T19:59:03.069Z,9.02
2022-11-14T20:01:29.649Z,9.05
2022-11-14T20:03:58.699Z,9.06
2022-11-14T20:06:27.920Z,9.00
2022-11-14T20:08:55.302Z,8.87
2022-11-14T20:11:22.927Z,8.67
2022-11-14T20:13:49.812Z,8.87
2022-11-14T20:16:18.767Z,8.89
2022-11-14T20:18:46.375Z,8.92
2022-11-14T20:21:14.202Z,8.86
2022-11-14T20:23:40.655Z,8.93
2022-11-14T20:26:11.204Z,8.88
2022-11-14T20:28:38.891Z,8.88
2022-11-14T20:31:12.588Z,8.82
2022-11-14T20:33:41.107Z,8.63
2022-11-14T20:36:10.907Z,8.52
2022-11-14T20:38:37.403Z,8.24
2022-11-14T20:41:03.983Z,8.34
2022-11-14T20:43:31.106Z,8.70
2022-11-14T20:46:06.563Z,8.67
2022-11-14T20:48:34.242Z,8.73
2022-11-14T20:51:05.689Z,8.74
2022-11-14T20:53:32.869Z,8.48
2022-11-14T20:56:00.503Z,8.32
2022-11-14T20:58:27.854Z,8.32
2022-11-14T21:00:54.604Z,8.57
2022-11-14T21:03:21.537Z,8.75
2022-11-14T21:05:48.129Z,8.83
2022-11-14T21:08:15.305Z,8.80
2022-11-14T21:10:47.905Z,8.78
2022-11-14T21:13:35.181Z,8.82
2022-11-14T21:16:04.026Z,8.84
2022-11-14T21:18:32.086Z,8.57
2022-11-14T21:21:05.652Z,8.32
2022-11-14T21:23:32.474Z,8.08
2022-11-14T21:26:04.145Z,7.94
2022-11-14T21:28:31.867Z,7.83
2022-11-14T21:31:00.666Z,7.80
2022-11-14T21:33:29.153Z,7.70
2022-11-14T21:35:57.236Z,7.71
2022-11-14T21:38:24.326Z,7.74
2022-11-14T21:40:54.560Z,7.83
2022-11-14T21:43:22.290Z,7.86
2022-11-14T21:46:00.163Z,7.81
2022-11-14T21:48:30.530Z,7.65
2022-11-14T21:51:22.494Z,7.56
2022-11-14T21:53:50.526Z,7.41
2022-11-14T21:56:19.788Z,7.21
2022-11-14T21:58:46.237Z,7.12
2022-11-14T22:01:15.299Z,7.00
2022-11-14T22:04:00.846Z,6.85
2022-11-14T22:06:27.909Z,7.04
2022-11-14T22:08:55.642Z,7.42
2022-11-14T22:11:23.385Z,7.52
2022-11-14T22:13:50.064Z,7.52
2022-11-14T22:16:19.386Z,7.57
2022-11-14T22:18:46.713Z,7.59
2022-11-14T22:21:13.517Z,7.45
2022-11-14T22:23:39.887Z,7.23
2022-11-14T22:26:06.396Z,7.29
2022-11-14T22:28:32.774Z,7.40
2022-11-14T22:31:06.995Z,7.64
2022-11-14T22:33:34.756Z,7.78
2022-11-14T22:36:08.083Z,7.77
2022-11-14T22:38:36.431Z,8.04
2022-11-14T22:41:05.207Z,8.03
2022-11-14T22:43:32.973Z,7.94
2022-11-14T22:46:00.506Z,8.07
2022-11-14T22:48:28.937Z,8.06
2022-11-14T22:50:59.956Z,8.10
2022-11-14T22:53:27.973Z,8.11
2022-11-14T22:55:54.724Z,8.20
2022-11-14T22:58:23.455Z,8.15
2022-11-14T23:00:52.413Z,8.14
2022-11-14T23:03:20.654Z,8.09
2022-11-14T23:05:47.702Z,8.05
2022-11-14T23:08:16.024Z,7.80
2022-11-14T23:10:43.019Z,7.63
2022-11-14T23:13:10.028Z,7.49
2022-11-14T23:15:37.325Z,7.31
2022-11-14T23:18:04.923Z,7.25
2022-11-14T23:20:31.512Z,7.10
2022-11-14T23:22:57.854Z,7.00
2022-11-14T23:25:24.228Z,6.94
2022-11-14T23:27:50.870Z,7.17
2022-11-14T23:30:17.418Z,7.56
2022-11-14T23:32:45.464Z,7.69
2022-11-14T23:35:11.967Z,7.81
2022-11-14T23:37:38.328Z,7.82
2022-11-14T23:40:05.219Z,7.85
2022-11-14T23:42:31.601Z,7.77
2022-11-14T23:44:58.040Z,7.63
2022-11-14T23:47:24.392Z,7.47
2022-11-14T23:49:50.789Z,7.26
2022-11-14T23:52:17.691Z,7.36
2022-11-14T23:54:44.391Z,7.48
2022-11-14T23:57:10.728Z,7.48
2022-11-14T23:59:37.080Z,7.49
